sensor_id;sensor_type;location;lat;lon;timestamp;temperature;humidity
60027;DHT22;45891;53.006;6.512;2023-02-21T00:01:14;9.50;99.90
60027;DHT22;45891;53.006;6.512;2023-02-21T00:03:59;9.40;99.90
60027;DHT22;45891;53.006;6.512;2023-02-21T00:06:43;9.40;99.90
60027;DHT22;45891;53.006;6.512;2023-02-21T00:09:28;9.40;99.90
60027;DHT22;45891;53.006;6.512;2023-02-21T00:12:13;9.50;99.90
60027;DHT22;45891;53.006;6.512;2023-02-21T00:14:57;9.50;99.90
60027;DHT22;45891;53.006;6.512;2023-02-21T00:17:42;9.50;99.90
60027;DHT22;45891;53.006;6.512;2023-02-21T00:20:26;9.60;99.90
60027;DHT22;45891;53.006;6.512;2023-02-21T00:23:11;9.60;99.90
60027;DHT22;45891;53.006;6.512;2023-02-21T00:25:56;9.60;99.90
60027;DHT22;45891;53.006;6.512;2023-02-21T00:28:40;9.60;99.90
60027;DHT22;45891;53.006;6.512;2023-02-21T00:31:28;9.50;99.90
60027;DHT22;45891;53.006;6.512;2023-02-21T00:34:13;9.50;99.90
60027;DHT22;45891;53.006;6.512;2023-02-21T00:36:57;9.50;99.90
60027;DHT22;45891;53.006;6.512;2023-02-21T00:39:45;9.50;99.90
60027;DHT22;45891;53.006;6.512;2023-02-21T00:42:30;9.50;99.90
60027;DHT22;45891;53.006;6.512;2023-02-21T00:45:15;9.50;99.90
60027;DHT22;45891;53.006;6.512;2023-02-21T00:47:59;9.50;99.90
60027;DHT22;45891;53.006;6.512;2023-02-21T00:50:44;9.50;99.90
60027;DHT22;45891;53.006;6.512;2023-02-21T00:53:28;9.50;99.90
60027;DHT22;45891;53.006;6.512;2023-02-21T00:56:13;9.50;99.90
60027;DHT22;45891;53.006;6.512;2023-02-21T00:58:58;9.50;99.90
60027;DHT22;45891;53.006;6.512;2023-02-21T01:01:42;9.50;99.90
60027;DHT22;45891;53.006;6.512;2023-02-21T01:04:26;9.50;99.90
60027;DHT22;45891;53.006;6.512;2023-02-21T01:07:11;9.50;99.90
60027;DHT22;45891;53.006;6.512;2023-02-21T01:09:55;9.50;99.90
60027;DHT22;45891;53.006;6.512;2023-02-21T01:12:40;9.50;99.90
60027;DHT22;45891;53.006;6.512;2023-02-21T01:15:25;9.50;99.90
60027;DHT22;45891;53.006;6.512;2023-02-21T01:18:09;9.50;99.90
60027;DHT22;45891;53.006;6.512;2023-02-21T01:20:54;9.50;99.90
60027;DHT22;45891;53.006;6.512;2023-02-21T01:23:38;9.50;99.90
60027;DHT22;45891;53.006;6.512;2023-02-21T01:26:23;9.40;99.90
60027;DHT22;45891;53.006;6.512;2023-02-21T01:29:07;9.50;99.90
60027;DHT22;45891;53.006;6.512;2023-02-21T01:31:55;9.40;99.90
60027;DHT22;45891;53.006;6.512;2023-02-21T01:34:40;9.40;99.90
60027;DHT22;45891;53.006;6.512;2023-02-21T01:37:24;9.40;99.90
60027;DHT22;45891;53.006;6.512;2023-02-21T01:40:12;9.40;99.90
60027;DHT22;45891;53.006;6.512;2023-02-21T01:42:57;9.40;99.90
60027;DHT22;45891;53.006;6.512;2023-02-21T01:45:44;9.40;99.90
60027;DHT22;45891;53.006;6.512;2023-02-21T01:48:29;9.40;99.90
60027;DHT22;45891;53.006;6.512;2023-02-21T01:51:16;9.40;99.90
60027;DHT22;45891;53.006;6.512;2023-02-21T01:54:03;9.40;99.90
60027;DHT22;45891;53.006;6.512;2023-02-21T01:56:47;9.30;99.90
60027;DHT22;45891;53.006;6.512;2023-02-21T01:59:32;9.40;99.90
60027;DHT22;45891;53.006;6.512;2023-02-21T02:05:02;9.40;99.90
60027;DHT22;45891;53.006;6.512;2023-02-21T02:07:47;9.40;99.90
60027;DHT22;45891;53.006;6.512;2023-02-21T02:10:32;9.40;99.90
60027;DHT22;45891;53.006;6.512;2023-02-21T02:21:03;9.40;99.90
60027;DHT22;45891;53.006;6.512;2023-02-21T02:36:48;9.40;99.90
60027;DHT22;45891;53.006;6.512;2023-02-21T02:44:40;9.40;99.90
60027;DHT22;45891;53.006;6.512;2023-02-21T02:47:08;9.40;99.90
60027;DHT22;45891;53.006;6.512;2023-02-21T02:49:36;9.40;99.90
60027;DHT22;45891;53.006;6.512;2023-02-21T02:52:04;9.30;99.90
60027;DHT22;45891;53.006;6.512;2023-02-21T02:54:30;9.30;99.90
60027;DHT22;45891;53.006;6.512;2023-02-21T02:56:56;9.40;99.90
60027;DHT22;45891;53.006;6.512;2023-02-21T02:59:24;9.40;99.90
60027;DHT22;45891;53.006;6.512;2023-02-21T03:01:57;9.30;99.90
60027;DHT22;45891;53.006;6.512;2023-02-21T03:04:44;9.30;99.90
60027;DHT22;45891;53.006;6.512;2023-02-21T03:10:19;9.30;99.90
60027;DHT22;45891;53.006;6.512;2023-02-21T03:12:47;9.30;99.90
60027;DHT22;45891;53.006;6.512;2023-02-21T03:15:31;9.30;99.90
60027;DHT22;45891;53.006;6.512;2023-02-21T03:18:01;9.30;99.90
60027;DHT22;45891;53.006;6.512;2023-02-21T03:20:29;9.30;99.90
60027;DHT22;45891;53.006;6.512;2023-02-21T03:22:56;9.30;99.90
60027;DHT22;45891;53.006;6.512;2023-02-21T03:25:22;9.30;99.90
60027;DHT22;45891;53.006;6.512;2023-02-21T03:27:49;9.30;99.90
60027;DHT22;45891;53.006;6.512;2023-02-21T03:30:16;9.20;99.90
60027;DHT22;45891;53.006;6.512;2023-02-21T03:32:49;9.20;99.90
60027;DHT22;45891;53.006;6.512;2023-02-21T03:35:18;9.30;99.90
60027;DHT22;45891;53.006;6.512;2023-02-21T03:37:46;9.30;99.90
60027;DHT22;45891;53.006;6.512;2023-02-21T03:40:17;9.20;99.90
60027;DHT22;45891;53.006;6.512;2023-02-21T03:42:43;9.20;99.90
60027;DHT22;45891;53.006;6.512;2023-02-21T03:45:09;9.20;99.90
60027;DHT22;45891;53.006;6.512;2023-02-21T03:47:35;9.20;99.90
60027;DHT22;45891;53.006;6.512;2023-02-21T03:50:01;9.20;99.90
60027;DHT22;45891;53.006;6.512;2023-02-21T03:52:29;9.30;99.90
60027;DHT22;45891;53.006;6.512;2023-02-21T03:54:55;9.20;99.90
60027;DHT22;45891;53.006;6.512;2023-02-21T03:57:21;9.20;99.90
60027;DHT22;45891;53.006;6.512;2023-02-21T03:59:47;9.20;99.90
60027;DHT22;45891;53.006;6.512;2023-02-21T04:02:13;9.20;99.90
60027;DHT22;45891;53.006;6.512;2023-02-21T04:04:39;9.20;99.90
60027;DHT22;45891;53.006;6.512;2023-02-21T04:07:05;9.30;99.90
60027;DHT22;45891;53.006;6.512;2023-02-21T04:09:31;9.20;99.90
60027;DHT22;45891;53.006;6.512;2023-02-21T04:11:57;9.20;99.90
60027;DHT22;45891;53.006;6.512;2023-02-21T04:14:23;9.30;99.90
60027;DHT22;45891;53.006;6.512;2023-02-21T04:16:48;9.30;99.90
60027;DHT22;45891;53.006;6.512;2023-02-21T04:19:14;9.30;99.90
60027;DHT22;45891;53.006;6.512;2023-02-21T04:21:40;9.30;99.90
60027;DHT22;45891;53.006;6.512;2023-02-21T04:24:06;9.30;99.90
60027;DHT22;45891;53.006;6.512;2023-02-21T04:26:32;9.30;99.90
60027;DHT22;45891;53.006;6.512;2023-02-21T04:29:00;9.30;99.90
60027;DHT22;45891;53.006;6.512;2023-02-21T04:31:26;9.20;99.90
60027;DHT22;45891;53.006;6.512;2023-02-21T04:33:52;9.30;99.90
60027;DHT22;45891;53.006;6.512;2023-02-21T04:36:17;9.30;99.90
60027;DHT22;45891;53.006;6.512;2023-02-21T04:38:43;9.30;99.90
60027;DHT22;45891;53.006;6.512;2023-02-21T04:41:09;9.30;99.90
60027;DHT22;45891;53.006;6.512;2023-02-21T04:43:36;9.30;99.90
60027;DHT22;45891;53.006;6.512;2023-02-21T04:46:02;9.30;99.90
60027;DHT22;45891;53.006;6.512;2023-02-21T04:48:27;9.30;99.90
60027;DHT22;45891;53.006;6.512;2023-02-21T04:50:53;9.30;99.90
60027;DHT22;45891;53.006;6.512;2023-02-21T04:53:19;9.30;99.90
60027;DHT22;45891;53.006;6.512;2023-02-21T04:55:45;9.30;99.90
60027;DHT22;45891;53.006;6.512;2023-02-21T04:58:11;9.30;99.90
60027;DHT22;45891;53.006;6.512;2023-02-21T05:00:37;9.30;99.90
60027;DHT22;45891;53.006;6.512;2023-02-21T05:03:03;9.30;99.90
60027;DHT22;45891;53.006;6.512;2023-02-21T05:05:29;9.30;99.90
60027;DHT22;45891;53.006;6.512;2023-02-21T05:07:55;9.30;99.90
60027;DHT22;45891;53.006;6.512;2023-02-21T05:10:21;9.20;99.90
60027;DHT22;45891;53.006;6.512;2023-02-21T05:12:46;9.30;99.90
60027;DHT22;45891;53.006;6.512;2023-02-21T05:15:13;9.30;99.90
60027;DHT22;45891;53.006;6.512;2023-02-21T05:17:38;9.30;99.90
60027;DHT22;45891;53.006;6.512;2023-02-21T05:20:05;9.30;99.90
60027;DHT22;45891;53.006;6.512;2023-02-21T05:22:39;9.30;99.90
60027;DHT22;45891;53.006;6.512;2023-02-21T05:25:07;9.30;99.90
60027;DHT22;45891;53.006;6.512;2023-02-21T05:27:32;9.30;99.90
60027;DHT22;45891;53.006;6.512;2023-02-21T05:29:59;9.30;99.90
60027;DHT22;45891;53.006;6.512;2023-02-21T05:32:25;9.30;99.90
60027;DHT22;45891;53.006;6.512;2023-02-21T05:34:54;9.30;99.90
60027;DHT22;45891;53.006;6.512;2023-02-21T05:37:20;9.20;99.90
60027;DHT22;45891;53.006;6.512;2023-02-21T05:39:46;9.20;99.90
60027;DHT22;45891;53.006;6.512;2023-02-21T05:42:15;9.20;99.90
60027;DHT22;45891;53.006;6.512;2023-02-21T05:44:44;9.20;99.90
60027;DHT22;45891;53.006;6.512;2023-02-21T05:47:10;9.20;99.90
60027;DHT22;45891;53.006;6.512;2023-02-21T05:49:36;9.20;99.90
60027;DHT22;45891;53.006;6.512;2023-02-21T05:52:02;9.20;99.90
60027;DHT22;45891;53.006;6.512;2023-02-21T05:54:29;9.20;99.90
60027;DHT22;45891;53.006;6.512;2023-02-21T05:56:55;9.20;99.90
60027;DHT22;45891;53.006;6.512;2023-02-21T05:59:21;9.10;99.90
60027;DHT22;45891;53.006;6.512;2023-02-21T06:01:48;9.20;99.90
60027;DHT22;45891;53.006;6.512;2023-02-21T06:04:14;9.20;99.90
60027;DHT22;45891;53.006;6.512;2023-02-21T06:06:40;9.20;99.90
60027;DHT22;45891;53.006;6.512;2023-02-21T06:09:06;9.20;99.90
60027;DHT22;45891;53.006;6.512;2023-02-21T06:11:33;9.20;99.90
60027;DHT22;45891;53.006;6.512;2023-02-21T06:14:00;9.20;99.90
60027;DHT22;45891;53.006;6.512;2023-02-21T06:16:31;9.20;99.90
60027;DHT22;45891;53.006;6.512;2023-02-21T06:18:57;9.20;99.90
60027;DHT22;45891;53.006;6.512;2023-02-21T06:21:23;9.20;99.90
60027;DHT22;45891;53.006;6.512;2023-02-21T06:23:49;9.20;99.90
60027;DHT22;45891;53.006;6.512;2023-02-21T06:26:15;9.20;99.90
60027;DHT22;45891;53.006;6.512;2023-02-21T06:28:41;9.20;99.90
60027;DHT22;45891;53.006;6.512;2023-02-21T06:31:07;9.20;99.90
60027;DHT22;45891;53.006;6.512;2023-02-21T06:33:33;9.20;99.90
60027;DHT22;45891;53.006;6.512;2023-02-21T06:36:06;9.20;99.90
60027;DHT22;45891;53.006;6.512;2023-02-21T06:38:32;9.20;99.90
60027;DHT22;45891;53.006;6.512;2023-02-21T06:40:59;9.20;99.90
60027;DHT22;45891;53.006;6.512;2023-02-21T06:43:24;9.10;99.90
60027;DHT22;45891;53.006;6.512;2023-02-21T06:45:50;9.20;99.90
60027;DHT22;45891;53.006;6.512;2023-02-21T06:48:16;9.20;99.90
60027;DHT22;45891;53.006;6.512;2023-02-21T06:50:42;9.20;99.90
60027;DHT22;45891;53.006;6.512;2023-02-21T06:53:08;9.20;99.90
60027;DHT22;45891;53.006;6.512;2023-02-21T06:55:34;9.20;99.90
60027;DHT22;45891;53.006;6.512;2023-02-21T06:58:00;9.20;99.90
60027;DHT22;45891;53.006;6.512;2023-02-21T07:00:26;9.20;99.90
60027;DHT22;45891;53.006;6.512;2023-02-21T07:02:52;9.20;99.90
60027;DHT22;45891;53.006;6.512;2023-02-21T07:05:21;9.20;99.90
60027;DHT22;45891;53.006;6.512;2023-02-21T07:07:47;9.20;99.90
60027;DHT22;45891;53.006;6.512;2023-02-21T07:10:13;9.20;99.90
60027;DHT22;45891;53.006;6.512;2023-02-21T07:12:39;9.20;99.90
60027;DHT22;45891;53.006;6.512;2023-02-21T07:15:05;9.10;99.90
60027;DHT22;45891;53.006;6.512;2023-02-21T07:17:31;9.20;99.90
60027;DHT22;45891;53.006;6.512;2023-02-21T07:19:57;9.10;99.90
60027;DHT22;45891;53.006;6.512;2023-02-21T07:22:23;9.10;99.90
60027;DHT22;45891;53.006;6.512;2023-02-21T07:24:51;9.10;99.90
60027;DHT22;45891;53.006;6.512;2023-02-21T07:27:17;9.20;99.90
60027;DHT22;45891;53.006;6.512;2023-02-21T07:29:45;9.20;99.90
60027;DHT22;45891;53.006;6.512;2023-02-21T07:32:11;9.20;99.90
60027;DHT22;45891;53.006;6.512;2023-02-21T07:34:37;9.20;99.90
60027;DHT22;45891;53.006;6.512;2023-02-21T07:37:02;9.20;99.90
60027;DHT22;45891;53.006;6.512;2023-02-21T07:39:28;9.20;99.90
60027;DHT22;45891;53.006;6.512;2023-02-21T07:41:54;9.20;99.90
60027;DHT22;45891;53.006;6.512;2023-02-21T07:44:20;9.20;99.90
60027;DHT22;45891;53.006;6.512;2023-02-21T07:46:46;9.20;99.90
60027;DHT22;45891;53.006;6.512;2023-02-21T07:49:12;9.20;99.90
60027;DHT22;45891;53.006;6.512;2023-02-21T07:51:38;9.20;99.90
60027;DHT22;45891;53.006;6.512;2023-02-21T07:54:04;9.20;99.90
60027;DHT22;45891;53.006;6.512;2023-02-21T07:56:29;9.20;99.90
60027;DHT22;45891;53.006;6.512;2023-02-21T07:58:55;9.20;99.90
60027;DHT22;45891;53.006;6.512;2023-02-21T08:01:22;9.20;99.90
60027;DHT22;45891;53.006;6.512;2023-02-21T08:03:48;9.20;99.90
60027;DHT22;45891;53.006;6.512;2023-02-21T08:06:15;9.20;99.90
60027;DHT22;45891;53.006;6.512;2023-02-21T08:08:41;9.30;99.90
60027;DHT22;45891;53.006;6.512;2023-02-21T08:11:06;9.30;99.90
60027;DHT22;45891;53.006;6.512;2023-02-21T08:13:32;9.30;99.90
60027;DHT22;45891;53.006;6.512;2023-02-21T08:15:58;9.30;99.90
60027;DHT22;45891;53.006;6.512;2023-02-21T08:18:24;9.30;99.90
60027;DHT22;45891;53.006;6.512;2023-02-21T08:20:51;9.40;99.90
60027;DHT22;45891;53.006;6.512;2023-02-21T08:23:17;9.30;99.90
60027;DHT22;45891;53.006;6.512;2023-02-21T08:25:43;9.30;99.90
60027;DHT22;45891;53.006;6.512;2023-02-21T08:28:10;9.40;99.90
60027;DHT22;45891;53.006;6.512;2023-02-21T08:30:36;9.40;99.90
60027;DHT22;45891;53.006;6.512;2023-02-21T08:33:04;9.40;99.90
60027;DHT22;45891;53.006;6.512;2023-02-21T08:35:30;9.40;99.90
60027;DHT22;45891;53.006;6.512;2023-02-21T08:37:56;9.40;99.90
60027;DHT22;45891;53.006;6.512;2023-02-21T08:40:28;9.40;99.90
60027;DHT22;45891;53.006;6.512;2023-02-21T08:42:55;9.40;99.90
60027;DHT22;45891;53.006;6.512;2023-02-21T08:45:22;9.40;99.90
60027;DHT22;45891;53.006;6.512;2023-02-21T08:47:48;9.40;99.90
60027;DHT22;45891;53.006;6.512;2023-02-21T08:50:15;9.40;99.90
60027;DHT22;45891;53.006;6.512;2023-02-21T08:52:40;9.40;99.90
60027;DHT22;45891;53.006;6.512;2023-02-21T08:55:07;9.50;99.90
60027;DHT22;45891;53.006;6.512;2023-02-21T08:57:33;9.40;99.90
60027;DHT22;45891;53.006;6.512;2023-02-21T08:59:59;9.50;99.90
60027;DHT22;45891;53.006;6.512;2023-02-21T09:02:25;9.50;99.90
60027;DHT22;45891;53.006;6.512;2023-02-21T09:04:53;9.50;99.90
60027;DHT22;45891;53.006;6.512;2023-02-21T09:07:19;9.50;99.90
60027;DHT22;45891;53.006;6.512;2023-02-21T09:09:45;9.50;99.90
60027;DHT22;45891;53.006;6.512;2023-02-21T09:12:11;9.50;99.90
60027;DHT22;45891;53.006;6.512;2023-02-21T09:14:38;9.50;99.90
60027;DHT22;45891;53.006;6.512;2023-02-21T09:17:05;9.50;99.90
60027;DHT22;45891;53.006;6.512;2023-02-21T09:19:31;9.50;99.90
60027;DHT22;45891;53.006;6.512;2023-02-21T09:21:57;9.50;99.90
60027;DHT22;45891;53.006;6.512;2023-02-21T09:24:23;9.50;99.90
60027;DHT22;45891;53.006;6.512;2023-02-21T09:26:51;9.60;99.90
60027;DHT22;45891;53.006;6.512;2023-02-21T09:29:19;9.60;99.90
60027;DHT22;45891;53.006;6.512;2023-02-21T09:31:45;9.60;99.90
60027;DHT22;45891;53.006;6.512;2023-02-21T09:34:11;9.60;99.90
60027;DHT22;45891;53.006;6.512;2023-02-21T09:36:37;9.70;99.90
60027;DHT22;45891;53.006;6.512;2023-02-21T09:39:03;9.70;99.90
60027;DHT22;45891;53.006;6.512;2023-02-21T09:41:34;9.70;99.90
60027;DHT22;45891;53.006;6.512;2023-02-21T09:44:00;9.70;99.90
60027;DHT22;45891;53.006;6.512;2023-02-21T09:46:31;9.80;99.90
60027;DHT22;45891;53.006;6.512;2023-02-21T09:48:59;9.80;99.90
60027;DHT22;45891;53.006;6.512;2023-02-21T09:51:25;9.80;99.90
60027;DHT22;45891;53.006;6.512;2023-02-21T09:53:53;9.80;99.90
60027;DHT22;45891;53.006;6.512;2023-02-21T09:56:25;9.90;99.90
60027;DHT22;45891;53.006;6.512;2023-02-21T09:58:52;10.00;99.90
60027;DHT22;45891;53.006;6.512;2023-02-21T10:08:56;10.20;99.90
60027;DHT22;45891;53.006;6.512;2023-02-21T10:11:26;10.20;99.90
60027;DHT22;45891;53.006;6.512;2023-02-21T10:19:44;10.30;99.90
60027;DHT22;45891;53.006;6.512;2023-02-21T10:22:22;10.40;99.90
60027;DHT22;45891;53.006;6.512;2023-02-21T10:24:50;10.40;99.90
60027;DHT22;45891;53.006;6.512;2023-02-21T10:27:17;10.40;99.90
60027;DHT22;45891;53.006;6.512;2023-02-21T10:32:16;10.40;99.90
60027;DHT22;45891;53.006;6.512;2023-02-21T10:34:42;10.50;99.90
60027;DHT22;45891;53.006;6.512;2023-02-21T10:40:04;10.40;99.90
60027;DHT22;45891;53.006;6.512;2023-02-21T10:42:36;10.40;99.90
60027;DHT22;45891;53.006;6.512;2023-02-21T10:45:04;10.50;99.90
60027;DHT22;45891;53.006;6.512;2023-02-21T10:50:04;10.50;99.90
60027;DHT22;45891;53.006;6.512;2023-02-21T10:52:35;10.50;99.90
60027;DHT22;45891;53.006;6.512;2023-02-21T10:55:20;10.50;99.90
60027;DHT22;45891;53.006;6.512;2023-02-21T10:57:52;10.60;99.90
60027;DHT22;45891;53.006;6.512;2023-02-21T11:00:29;10.60;99.90
60027;DHT22;45891;53.006;6.512;2023-02-21T11:02:56;10.60;99.90
60027;DHT22;45891;53.006;6.512;2023-02-21T11:05:27;10.60;99.90
60027;DHT22;45891;53.006;6.512;2023-02-21T11:13:00;10.70;99.90
60027;DHT22;45891;53.006;6.512;2023-02-21T11:15:26;10.70;99.90
60027;DHT22;45891;53.006;6.512;2023-02-21T11:18:03;10.70;99.90
60027;DHT22;45891;53.006;6.512;2023-02-21T11:20:29;10.70;99.90
60027;DHT22;45891;53.006;6.512;2023-02-21T11:22:55;10.80;99.90
60027;DHT22;45891;53.006;6.512;2023-02-21T11:25:30;10.70;99.90
60027;DHT22;45891;53.006;6.512;2023-02-21T11:27:57;10.70;99.90
60027;DHT22;45891;53.006;6.512;2023-02-21T11:30:23;10.70;99.90
60027;DHT22;45891;53.006;6.512;2023-02-21T11:32:51;10.70;99.90
60027;DHT22;45891;53.006;6.512;2023-02-21T11:37:47;10.70;99.90
60027;DHT22;45891;53.006;6.512;2023-02-21T11:42:49;10.70;99.90
60027;DHT22;45891;53.006;6.512;2023-02-21T11:45:23;10.60;99.90
60027;DHT22;45891;53.006;6.512;2023-02-21T11:48:12;10.70;99.90
60027;DHT22;45891;53.006;6.512;2023-02-21T11:50:39;10.70;99.90
60027;DHT22;45891;53.006;6.512;2023-02-21T11:55:46;10.70;99.90
60027;DHT22;45891;53.006;6.512;2023-02-21T11:58:19;10.80;99.90
60027;DHT22;45891;53.006;6.512;2023-02-21T12:00:56;10.80;99.90
60027;DHT22;45891;53.006;6.512;2023-02-21T12:08:41;10.80;99.90
60027;DHT22;45891;53.006;6.512;2023-02-21T12:13:42;10.70;99.90
60027;DHT22;45891;53.006;6.512;2023-02-21T12:18:57;10.70;99.90
60027;DHT22;45891;53.006;6.512;2023-02-21T12:21:31;10.70;99.90
60027;DHT22;45891;53.006;6.512;2023-02-21T12:24:15;10.70;99.90
60027;DHT22;45891;53.006;6.512;2023-02-21T12:26:59;10.70;99.90
60027;DHT22;45891;53.006;6.512;2023-02-21T12:37:09;10.70;99.90
60027;DHT22;45891;53.006;6.512;2023-02-21T12:40:23;10.80;99.90
60027;DHT22;45891;53.006;6.512;2023-02-21T12:45:48;10.70;99.90
60027;DHT22;45891;53.006;6.512;2023-02-21T12:48:05;10.70;99.90
60027;DHT22;45891;53.006;6.512;2023-02-21T12:50:35;10.70;99.90
60027;DHT22;45891;53.006;6.512;2023-02-21T12:53:10;10.70;99.90
60027;DHT22;45891;53.006;6.512;2023-02-21T12:55:41;10.70;99.90
60027;DHT22;45891;53.006;6.512;2023-02-21T12:58:18;10.70;99.90
60027;DHT22;45891;53.006;6.512;2023-02-21T13:00:50;10.60;99.90
60027;DHT22;45891;53.006;6.512;2023-02-21T13:06:08;10.60;99.90
60027;DHT22;45891;53.006;6.512;2023-02-21T13:08:42;10.60;99.90
60027;DHT22;45891;53.006;6.512;2023-02-21T13:11:13;10.60;99.90
60027;DHT22;45891;53.006;6.512;2023-02-21T13:13:39;10.60;99.90
60027;DHT22;45891;53.006;6.512;2023-02-21T13:16:09;10.60;99.90
60027;DHT22;45891;53.006;6.512;2023-02-21T13:23:32;10.60;99.90
60027;DHT22;45891;53.006;6.512;2023-02-21T13:28:51;10.50;99.90
60027;DHT22;45891;53.006;6.512;2023-02-21T13:31:21;10.50;99.90
60027;DHT22;45891;53.006;6.512;2023-02-21T13:33:49;10.60;99.90
60027;DHT22;45891;53.006;6.512;2023-02-21T13:38:59;10.50;99.90
60027;DHT22;45891;53.006;6.512;2023-02-21T13:41:26;10.50;99.90
60027;DHT22;45891;53.006;6.512;2023-02-21T13:43:56;10.50;99.90
60027;DHT22;45891;53.006;6.512;2023-02-21T13:54:11;10.30;99.90
60027;DHT22;45891;53.006;6.512;2023-02-21T13:56:42;10.30;99.90
60027;DHT22;45891;53.006;6.512;2023-02-21T14:02:13;10.30;99.90
60027;DHT22;45891;53.006;6.512;2023-02-21T14:04:52;10.20;99.90
60027;DHT22;45891;53.006;6.512;2023-02-21T14:10:26;10.20;99.90
60027;DHT22;45891;53.006;6.512;2023-02-21T14:12:54;10.20;99.90
60027;DHT22;45891;53.006;6.512;2023-02-21T14:15:20;10.20;99.90
60027;DHT22;45891;53.006;6.512;2023-02-21T14:17:46;10.20;99.90
60027;DHT22;45891;53.006;6.512;2023-02-21T14:20:15;10.10;99.90
60027;DHT22;45891;53.006;6.512;2023-02-21T14:22:42;10.10;99.90
60027;DHT22;45891;53.006;6.512;2023-02-21T14:25:15;10.10;99.90
60027;DHT22;45891;53.006;6.512;2023-02-21T14:27:45;10.20;99.90
60027;DHT22;45891;53.006;6.512;2023-02-21T14:32:40;10.00;99.90
60027;DHT22;45891;53.006;6.512;2023-02-21T14:38:04;10.00;99.90
60027;DHT22;45891;53.006;6.512;2023-02-21T14:48:35;9.90;99.90
60027;DHT22;45891;53.006;6.512;2023-02-21T14:51:07;9.90;99.90
60027;DHT22;45891;53.006;6.512;2023-02-21T14:58:53;9.90;99.90
60027;DHT22;45891;53.006;6.512;2023-02-21T15:01:32;9.90;99.90
60027;DHT22;45891;53.006;6.512;2023-02-21T15:06:56;9.90;99.90
60027;DHT22;45891;53.006;6.512;2023-02-21T15:09:24;9.90;99.90
60027;DHT22;45891;53.006;6.512;2023-02-21T15:11:50;9.90;99.90
60027;DHT22;45891;53.006;6.512;2023-02-21T15:14:18;9.90;99.90
60027;DHT22;45891;53.006;6.512;2023-02-21T15:16:49;9.90;99.90
60027;DHT22;45891;53.006;6.512;2023-02-21T15:19:18;9.80;99.90
60027;DHT22;45891;53.006;6.512;2023-02-21T15:21:44;9.90;99.90
60027;DHT22;45891;53.006;6.512;2023-02-21T15:24:11;9.80;99.90
60027;DHT22;45891;53.006;6.512;2023-02-21T15:26:37;9.80;99.90
60027;DHT22;45891;53.006;6.512;2023-02-21T15:32:03;9.80;99.90
60027;DHT22;45891;53.006;6.512;2023-02-21T15:34:27;9.70;99.90
60027;DHT22;45891;53.006;6.512;2023-02-21T15:37:14;9.70;99.90
60027;DHT22;45891;53.006;6.512;2023-02-21T15:39:42;9.80;99.90
60027;DHT22;45891;53.006;6.512;2023-02-21T15:42:11;9.70;99.90
60027;DHT22;45891;53.006;6.512;2023-02-21T15:47:17;9.70;99.90
60027;DHT22;45891;53.006;6.512;2023-02-21T15:49:58;9.70;99.90
60027;DHT22;45891;53.006;6.512;2023-02-21T15:52:30;9.70;99.90
60027;DHT22;45891;53.006;6.512;2023-02-21T15:55:26;9.70;99.90
60027;DHT22;45891;53.006;6.512;2023-02-21T15:58:03;9.70;99.90
60027;DHT22;45891;53.006;6.512;2023-02-21T16:00:40;9.70;99.90
60027;DHT22;45891;53.006;6.512;2023-02-21T16:03:25;9.60;99.90
60027;DHT22;45891;53.006;6.512;2023-02-21T16:05:52;9.70;99.90
60027;DHT22;45891;53.006;6.512;2023-02-21T16:08:18;9.60;99.90
60027;DHT22;45891;53.006;6.512;2023-02-21T16:10:44;9.60;99.90
60027;DHT22;45891;53.006;6.512;2023-02-21T16:13:10;9.50;99.90
60027;DHT22;45891;53.006;6.512;2023-02-21T16:15:36;9.60;99.90
60027;DHT22;45891;53.006;6.512;2023-02-21T16:18:06;9.50;99.90
60027;DHT22;45891;53.006;6.512;2023-02-21T16:20:34;9.50;99.90
60027;DHT22;45891;53.006;6.512;2023-02-21T16:23:18;9.50;99.90
60027;DHT22;45891;53.006;6.512;2023-02-21T16:28:31;9.50;99.90
60027;DHT22;45891;53.006;6.512;2023-02-21T16:30:58;9.50;99.90
60027;DHT22;45891;53.006;6.512;2023-02-21T16:33:26;9.50;99.90
60027;DHT22;45891;53.006;6.512;2023-02-21T16:35:52;9.50;99.90
60027;DHT22;45891;53.006;6.512;2023-02-21T16:38:18;9.50;99.90
60027;DHT22;45891;53.006;6.512;2023-02-21T16:40:45;9.50;99.90
60027;DHT22;45891;53.006;6.512;2023-02-21T16:45:43;9.50;99.90
60027;DHT22;45891;53.006;6.512;2023-02-21T16:48:16;9.50;99.90
60027;DHT22;45891;53.006;6.512;2023-02-21T16:50:45;9.50;99.90
60027;DHT22;45891;53.006;6.512;2023-02-21T16:53:11;9.50;99.90
60027;DHT22;45891;53.006;6.512;2023-02-21T16:55:37;9.50;99.90
60027;DHT22;45891;53.006;6.512;2023-02-21T16:58:04;9.50;99.90
60027;DHT22;45891;53.006;6.512;2023-02-21T17:00:30;9.40;99.90
60027;DHT22;45891;53.006;6.512;2023-02-21T17:02:56;9.50;99.90
60027;DHT22;45891;53.006;6.512;2023-02-21T17:05:22;9.40;99.90
60027;DHT22;45891;53.006;6.512;2023-02-21T17:07:52;9.40;99.90
60027;DHT22;45891;53.006;6.512;2023-02-21T17:10:19;9.40;99.90
60027;DHT22;45891;53.006;6.512;2023-02-21T17:12:45;9.40;99.90
60027;DHT22;45891;53.006;6.512;2023-02-21T17:15:11;9.40;99.90
60027;DHT22;45891;53.006;6.512;2023-02-21T17:17:37;9.40;99.90
60027;DHT22;45891;53.006;6.512;2023-02-21T17:20:03;9.40;99.90
60027;DHT22;45891;53.006;6.512;2023-02-21T17:22:29;9.30;99.90
60027;DHT22;45891;53.006;6.512;2023-02-21T17:24:55;9.40;99.90
60027;DHT22;45891;53.006;6.512;2023-02-21T17:27:21;9.40;99.90
60027;DHT22;45891;53.006;6.512;2023-02-21T17:29:48;9.40;99.90
60027;DHT22;45891;53.006;6.512;2023-02-21T17:32:14;9.30;99.90
60027;DHT22;45891;53.006;6.512;2023-02-21T17:34:40;9.40;99.90
60027;DHT22;45891;53.006;6.512;2023-02-21T17:37:07;9.40;99.90
60027;DHT22;45891;53.006;6.512;2023-02-21T17:39:34;9.40;99.90
60027;DHT22;45891;53.006;6.512;2023-02-21T17:42:00;9.40;99.90
60027;DHT22;45891;53.006;6.512;2023-02-21T17:44:26;9.40;99.90
60027;DHT22;45891;53.006;6.512;2023-02-21T17:46:53;9.30;99.90
60027;DHT22;45891;53.006;6.512;2023-02-21T17:49:20;9.30;99.90
60027;DHT22;45891;53.006;6.512;2023-02-21T17:51:47;9.30;99.90
60027;DHT22;45891;53.006;6.512;2023-02-21T17:54:14;9.30;99.90
60027;DHT22;45891;53.006;6.512;2023-02-21T17:56:40;9.30;99.90
60027;DHT22;45891;53.006;6.512;2023-02-21T17:59:06;9.30;99.90
60027;DHT22;45891;53.006;6.512;2023-02-21T18:01:32;9.30;99.90
60027;DHT22;45891;53.006;6.512;2023-02-21T18:03:58;9.30;99.90
60027;DHT22;45891;53.006;6.512;2023-02-21T18:06:28;9.30;99.90
60027;DHT22;45891;53.006;6.512;2023-02-21T18:08:54;9.30;99.90
60027;DHT22;45891;53.006;6.512;2023-02-21T18:11:21;9.30;99.90
60027;DHT22;45891;53.006;6.512;2023-02-21T18:13:47;9.30;99.90
60027;DHT22;45891;53.006;6.512;2023-02-21T18:16:13;9.30;99.90
60027;DHT22;45891;53.006;6.512;2023-02-21T18:18:39;9.30;99.90
60027;DHT22;45891;53.006;6.512;2023-02-21T18:21:05;9.30;99.90
60027;DHT22;45891;53.006;6.512;2023-02-21T18:23:32;9.30;99.90
60027;DHT22;45891;53.006;6.512;2023-02-21T18:25:58;9.30;99.90
60027;DHT22;45891;53.006;6.512;2023-02-21T18:28:25;9.30;99.90